createdAt,value
2023-02-11T00:03:43.621Z,72.34
2023-02-11T00:08:45.937Z,72.36
2023-02-11T00:13:51.276Z,72.38
2023-02-11T00:18:54.364Z,72.19
2023-02-11T00:23:58.276Z,72.09
2023-02-11T00:29:04.445Z,72.23
2023-02-11T00:34:06.900Z,72.22
2023-02-11T00:39:11.406Z,72.38
2023-02-11T00:44:13.581Z,72.15
2023-02-11T00:49:16.090Z,72.19
2023-02-11T00:54:18.313Z,72.17
2023-02-11T00:59:20.471Z,72.17
2023-02-11T01:04:25.628Z,72.00
2023-02-11T01:09:27.789Z,72.07
2023-02-11T01:14:30.246Z,72.04
2023-02-11T01:19:32.437Z,71.91
2023-02-11T01:24:34.596Z,71.97
2023-02-11T01:29:36.821Z,71.98
2023-02-11T01:34:38.982Z,72.22
2023-02-11T01:39:41.191Z,71.98
2023-02-11T01:44:43.545Z,71.91
2023-02-11T01:49:52.894Z,72.26
2023-02-11T01:55:17.375Z,72.07
2023-02-11T02:00:24.477Z,72.09
2023-02-11T02:05:56.194Z,72.16
2023-02-11T02:11:01.101Z,72.26
2023-02-11T02:16:08.588Z,72.21
2023-02-11T02:21:36.270Z,71.97
2023-02-11T02:26:53.053Z,71.61
2023-02-11T02:32:35.103Z,71.68
2023-02-11T02:37:56.954Z,71.74
2023-02-11T02:42:59.954Z,71.54
2023-02-11T02:48:02.216Z,71.65
2023-02-11T02:53:42.747Z,71.49
2023-02-11T02:59:06.948Z,71.62
2023-02-11T03:04:42.737Z,71.60
2023-02-11T03:09:58.883Z,71.57
2023-02-11T03:15:02.247Z,71.39
2023-02-11T03:20:06.762Z,71.41
2023-02-11T03:25:10.074Z,71.49
2023-02-11T03:30:18.485Z,71.15
2023-02-11T03:35:33.475Z,71.40
2023-02-11T03:40:40.276Z,71.29
2023-02-11T03:45:42.516Z,71.12
2023-02-11T03:50:46.172Z,71.26
2023-02-11T03:55:50.274Z,71.12
2023-02-11T04:00:52.728Z,71.33
2023-02-11T04:05:55.004Z,71.16
2023-02-11T04:10:57.219Z,71.16
2023-02-11T04:15:59.467Z,71.42
2023-02-11T04:21:01.726Z,71.05
2023-02-11T04:26:04.242Z,71.07
2023-02-11T04:31:06.552Z,70.97
2023-02-11T04:36:08.961Z,70.96
2023-02-11T04:41:11.160Z,71.07
2023-02-11T04:46:13.554Z,70.87
2023-02-11T04:51:15.822Z,70.93
2023-02-11T04:56:18.022Z,70.95
2023-02-11T05:01:20.335Z,71.12
2023-02-11T05:06:22.698Z,70.99
2023-02-11T05:11:25.890Z,71.05
2023-02-11T05:16:28.447Z,71.16
2023-02-11T05:21:30.711Z,71.10
2023-02-11T05:26:33.144Z,71.07
2023-02-11T05:31:35.212Z,71.25
2023-02-11T05:36:37.336Z,71.33
2023-02-11T05:41:39.577Z,71.58
2023-02-11T05:46:41.720Z,71.60
2023-02-11T05:51:44.041Z,71.62
2023-02-11T05:56:46.200Z,71.63
2023-02-11T06:01:48.466Z,71.78
2023-02-11T06:06:50.543Z,71.73
2023-02-11T06:11:52.780Z,71.60
2023-02-11T06:16:55.042Z,71.83
2023-02-11T06:21:57.470Z,71.92
2023-02-11T06:26:59.680Z,71.77
2023-02-11T06:32:02.002Z,71.81
2023-02-11T06:37:04.622Z,71.85
2023-02-11T06:42:08.020Z,71.82
2023-02-11T06:47:10.751Z,71.56
2023-02-11T06:52:12.982Z,71.66
2023-02-11T06:57:15.179Z,71.66
2023-02-11T07:02:20.386Z,71.52
2023-02-11T07:07:23.239Z,71.89
2023-02-11T07:12:25.306Z,71.64
2023-02-11T07:17:30.481Z,71.77
2023-02-11T07:22:34.408Z,71.69
2023-02-11T07:27:36.677Z,71.75
2023-02-11T07:32:38.772Z,71.68
2023-02-11T07:37:41.814Z,71.46
2023-02-11T07:42:43.951Z,71.35
2023-02-11T07:47:46.152Z,71.26
2023-02-11T07:52:48.254Z,71.32
2023-02-11T07:57:51.052Z,71.20
2023-02-11T08:02:53.164Z,71.40
2023-02-11T08:07:58.350Z,71.24
2023-02-11T08:13:02.796Z,71.11
2023-02-11T08:18:05.043Z,70.99
2023-02-11T08:23:08.394Z,70.89
2023-02-11T08:28:10.798Z,70.63
2023-02-11T08:33:12.973Z,70.39
2023-02-11T08:38:15.145Z,70.36
2023-02-11T08:43:17.377Z,70.34
2023-02-11T08:48:19.530Z,70.29
2023-02-11T08:53:21.695Z,70.35
2023-02-11T08:58:23.884Z,70.54
2023-02-11T09:03:26.036Z,70.39
2023-02-11T09:08:28.210Z,70.50
2023-02-11T09:13:31.449Z,70.56
2023-02-11T09:18:33.875Z,70.79
2023-02-11T09:23:36.629Z,70.77
2023-02-11T09:28:39.439Z,71.03
2023-02-11T09:33:48.008Z,70.80
2023-02-11T09:38:50.759Z,70.84
2023-02-11T09:43:56.249Z,70.92
2023-02-11T09:48:58.443Z,71.14
2023-02-11T09:54:09.840Z,71.12
2023-02-11T09:59:17.646Z,71.25
2023-02-11T10:04:50.290Z,71.40
2023-02-11T10:10:14.094Z,71.63
2023-02-11T10:15:24.898Z,71.35
2023-02-11T10:26:13.580Z,71.59
2023-02-11T10:31:40.573Z,71.84
2023-02-11T10:36:44.203Z,71.61
2023-02-11T10:42:08.245Z,71.87
2023-02-11T10:47:19.770Z,71.65
2023-02-11T10:52:27.161Z,71.49
2023-02-11T10:57:44.894Z,71.53
2023-02-11T11:02:54.757Z,71.29
2023-02-11T11:08:00.119Z,71.25
2023-02-11T11:13:02.423Z,71.33
2023-02-11T11:18:22.798Z,71.04
2023-02-11T11:23:25.928Z,70.94
2023-02-11T11:28:30.998Z,70.85
2023-02-11T11:33:34.916Z,70.74
2023-02-11T11:38:43.682Z,70.73
2023-02-11T11:44:18.632Z,70.23
2023-02-11T11:49:33.380Z,69.92
2023-02-11T11:54:36.290Z,70.06
2023-02-11T11:59:38.500Z,70.06
2023-02-11T12:05:03.078Z,69.90
2023-02-11T12:10:15.169Z,69.72
2023-02-11T12:15:26.337Z,69.72
2023-02-11T12:21:06.022Z,69.52
2023-02-11T12:26:15.738Z,69.86
2023-02-11T12:31:38.870Z,69.93
2023-02-11T12:37:08.104Z,70.08
2023-02-11T12:42:35.880Z,70.01
2023-02-11T12:47:47.024Z,70.33
2023-02-11T12:53:18.103Z,70.09
2023-02-11T12:58:29.690Z,70.33
2023-02-11T13:03:41.629Z,70.19
2023-02-11T13:08:47.721Z,70.20
2023-02-11T13:13:56.582Z,70.36
2023-02-11T13:19:14.087Z,70.67
2023-02-11T13:24:38.034Z,71.11
2023-02-11T13:30:06.644Z,71.59
2023-02-11T13:35:28.716Z,71.90
2023-02-11T13:40:36.563Z,72.05
2023-02-11T13:45:49.913Z,72.56
2023-02-11T13:50:58.784Z,72.77
2023-02-11T13:56:13.104Z,73.56
2023-02-11T14:02:12.335Z,74.12
2023-02-11T14:07:52.786Z,74.17
2023-02-11T14:13:25.833Z,74.42
2023-02-11T14:18:49.300Z,74.60
2023-02-11T14:24:05.055Z,74.29
2023-02-11T14:29:19.766Z,75.09
2023-02-11T14:34:51.930Z,75.39
2023-02-11T14:39:54.214Z,74.92
2023-02-11T14:44:59.606Z,75.11
2023-02-11T14:50:01.869Z,75.20
2023-02-11T14:55:33.625Z,76.30
2023-02-11T15:00:35.992Z,75.62
2023-02-11T15:05:38.313Z,75.81
2023-02-11T15:10:44.451Z,76.43
2023-02-11T15:15:47.305Z,75.97
2023-02-11T15:20:50.430Z,76.21
2023-02-11T15:26:05.938Z,76.39
2023-02-11T15:31:16.762Z,77.24
2023-02-11T15:36:21.810Z,77.04
2023-02-11T15:41:37.623Z,77.61
2023-02-11T15:46:40.545Z,76.93
2023-02-11T15:51:45.799Z,77.11
2023-02-11T15:56:55.638Z,77.77
2023-02-11T16:02:05.294Z,77.49
2023-02-11T16:07:19.438Z,77.38
2023-02-11T16:12:24.254Z,77.30
2023-02-11T16:17:28.322Z,77.81
2023-02-11T16:22:35.641Z,77.98
2023-02-11T16:27:40.612Z,78.30
2023-02-11T16:32:43.287Z,78.37
2023-02-11T16:37:45.509Z,78.23
2023-02-11T16:42:48.049Z,78.45
2023-02-11T16:47:50.278Z,78.64
2023-02-11T16:52:53.280Z,78.54
2023-02-11T16:57:55.529Z,78.95
2023-02-11T17:02:57.932Z,78.87
2023-02-11T17:08:02.607Z,79.09
2023-02-11T17:13:12.818Z,79.42
2023-02-11T17:18:17.970Z,79.49
2023-02-11T17:23:20.270Z,79.66
2023-02-11T17:28:22.518Z,79.38
2023-02-11T17:33:25.129Z,79.47
2023-02-11T17:38:27.312Z,79.79
2023-02-11T17:43:29.541Z,79.53
2023-02-11T17:48:32.028Z,79.58
2023-02-11T17:53:34.305Z,79.79
2023-02-11T17:58:36.475Z,80.00
2023-02-11T18:03:38.619Z,80.07
2023-02-11T18:08:42.193Z,79.93
2023-02-11T18:13:45.839Z,80.04
2023-02-11T18:18:48.344Z,80.09
2023-02-11T18:23:53.147Z,80.41
2023-02-11T18:28:58.247Z,80.42
2023-02-11T18:34:00.393Z,80.41
2023-02-11T18:39:05.207Z,80.41
2023-02-11T18:44:07.638Z,80.56
2023-02-11T18:49:13.391Z,80.74
2023-02-11T18:54:15.776Z,80.62
2023-02-11T18:59:17.985Z,80.69
2023-02-11T19:04:20.389Z,80.71
2023-02-11T19:09:22.929Z,80.90
2023-02-11T19:14:34.457Z,80.85
2023-02-11T19:19:41.109Z,80.88
2023-02-11T19:24:43.479Z,80.95
2023-02-11T19:29:45.762Z,81.03
2023-02-11T19:34:48.144Z,81.07
2023-02-11T19:39:50.591Z,81.26
2023-02-11T19:44:53.365Z,81.03
2023-02-11T19:49:55.703Z,81.09
2023-02-11T19:54:57.903Z,81.06
2023-02-11T20:00:01.445Z,81.17
2023-02-11T20:05:05.932Z,81.29
2023-02-11T20:10:11.274Z,81.60
2023-02-11T20:15:14.506Z,81.51
2023-02-11T20:20:18.946Z,81.49
2023-02-11T20:25:21.255Z,81.43
2023-02-11T20:30:23.403Z,81.57
2023-02-11T20:35:25.674Z,81.88
2023-02-11T20:40:27.917Z,81.64
2023-02-11T20:45:30.134Z,81.79
2023-02-11T20:50:34.504Z,81.83
2023-02-11T20:55:40.141Z,81.95
2023-02-11T21:00:42.460Z,81.95
2023-02-11T21:05:44.733Z,82.06
2023-02-11T21:10:48.479Z,81.99
2023-02-11T21:15:57.163Z,82.22
2023-02-11T21:21:00.103Z,82.02
2023-02-11T21:26:02.304Z,82.10
2023-02-11T21:31:05.486Z,82.18
2023-02-11T21:36:08.252Z,82.20
2023-02-11T21:41:10.646Z,82.27
2023-02-11T21:46:15.035Z,82.21
2023-02-11T21:51:19.910Z,82.38
2023-02-11T21:56:22.261Z,82.29
2023-02-11T22:01:32.708Z,82.37
2023-02-11T22:06:35.426Z,82.13
2023-02-11T22:11:37.956Z,82.27
2023-02-11T22:16:40.310Z,82.45
2023-02-11T22:21:43.663Z,82.54
2023-02-11T22:26:45.856Z,82.45
2023-02-11T22:31:48.028Z,82.47
2023-02-11T22:36:50.114Z,82.55
2023-02-11T22:41:52.270Z,82.60
2023-02-11T22:46:54.511Z,82.68
2023-02-11T22:51:56.627Z,82.92
2023-02-11T22:56:58.699Z,82.92
2023-02-11T23:02:01.057Z,83.00
2023-02-11T23:07:27.481Z,82.77
2023-02-11T23:12:29.657Z,82.80
2023-02-11T23:17:31.758Z,82.77
2023-02-11T23:22:34.186Z,83.06
2023-02-11T23:27:36.419Z,82.83
2023-02-11T23:32:39.402Z,82.87
2023-02-11T23:37:41.507Z,82.81
2023-02-11T23:42:43.998Z,82.86
2023-02-11T23:47:46.174Z,82.90
2023-02-11T23:52:48.324Z,82.84
2023-02-11T23:57:50.428Z,81.78
